createdAt,value
2023-04-30T00:01:26.570Z,14.10
2023-04-30T00:03:55.499Z,14.15
2023-04-30T00:06:25.549Z,12.98
2023-04-30T00:08:55.319Z,13.93
2023-04-30T00:11:23.776Z,14.25
2023-04-30T00:13:53.667Z,14.05
2023-04-30T00:16:22.134Z,14.18
2023-04-30T00:18:50.848Z,15.13
2023-04-30T00:21:19.411Z,14.45
2023-04-30T00:23:48.050Z,16.00
2023-04-30T00:26:16.824Z,15.20
2023-04-30T00:28:48.637Z,15.88
2023-04-30T00:31:18.497Z,14.48
2023-04-30T00:33:46.987Z,14.30
2023-04-30T00:36:15.563Z,14.10
2023-04-30T00:38:44.110Z,14.20
2023-04-30T00:41:12.579Z,15.27
2023-04-30T00:43:41.846Z,13.45
2023-04-30T00:46:10.306Z,14.75
2023-04-30T00:48:40.546Z,15.40
2023-04-30T00:51:09.281Z,14.32
2023-04-30T00:53:41.130Z,14.65
2023-04-30T00:58:39.409Z,12.75
2023-04-30T01:01:08.391Z,12.77
2023-04-30T01:03:37.108Z,13.68
2023-04-30T01:06:07.282Z,14.07
2023-04-30T01:08:36.492Z,12.70
2023-04-30T01:11:18.645Z,13.00
2023-04-30T01:16:25.057Z,12.93
2023-04-30T01:18:59.041Z,12.93
2023-04-30T01:21:31.139Z,12.68
2023-04-30T01:24:26.235Z,12.77
2023-04-30T01:27:05.960Z,13.52
2023-04-30T01:29:37.707Z,11.98
2023-04-30T01:34:34.944Z,11.93
2023-04-30T01:37:16.838Z,13.38
2023-04-30T01:40:04.500Z,12.90
2023-04-30T01:42:41.991Z,12.35
2023-04-30T01:45:23.799Z,12.90
2023-04-30T01:47:58.045Z,12.85
2023-04-30T01:50:33.033Z,13.10
2023-04-30T01:53:04.893Z,12.25
2023-04-30T01:55:37.880Z,12.57
2023-04-30T01:58:08.410Z,11.80
2023-04-30T02:00:38.167Z,12.10
2023-04-30T02:03:07.026Z,11.77
2023-04-30T02:05:36.301Z,11.15
2023-04-30T02:08:05.537Z,12.73
2023-04-30T02:10:35.721Z,12.15
2023-04-30T02:13:04.596Z,12.30
2023-04-30T02:15:33.226Z,12.70
2023-04-30T02:18:03.262Z,14.20
2023-04-30T02:20:32.340Z,12.85
2023-04-30T02:23:00.845Z,14.02
2023-04-30T02:25:29.933Z,13.93
2023-04-30T02:27:58.881Z,14.27
2023-04-30T02:30:27.307Z,12.23
2023-04-30T02:32:56.024Z,13.65
2023-04-30T02:35:26.666Z,13.63
2023-04-30T02:37:55.200Z,12.88
2023-04-30T02:40:23.624Z,11.85
2023-04-30T02:42:54.205Z,11.98
2023-04-30T02:45:22.804Z,11.95
2023-04-30T02:47:51.581Z,12.68
2023-04-30T02:50:20.020Z,12.52
2023-04-30T02:52:50.200Z,12.50
2023-04-30T02:55:18.771Z,11.70
2023-04-30T02:57:47.687Z,11.20
2023-04-30T03:00:16.613Z,11.75
2023-04-30T03:02:45.332Z,12.73
2023-04-30T03:05:15.984Z,12.52
2023-04-30T03:07:44.770Z,12.77
2023-04-30T03:10:14.898Z,11.77
2023-04-30T03:12:43.429Z,11.63
2023-04-30T03:15:12.513Z,11.73
2023-04-30T03:17:42.117Z,11.65
2023-04-30T03:20:12.915Z,10.73
2023-04-30T03:22:42.026Z,10.57
2023-04-30T03:25:11.821Z,10.50
2023-04-30T03:27:41.808Z,10.55
2023-04-30T03:30:10.952Z,10.85
2023-04-30T03:32:42.128Z,10.70
2023-04-30T03:35:11.529Z,10.43
2023-04-30T03:37:40.051Z,10.18
2023-04-30T03:40:09.890Z,10.02
2023-04-30T03:42:38.433Z,9.68
2023-04-30T03:45:09.596Z,9.68
2023-04-30T03:47:38.415Z,8.85
2023-04-30T03:50:08.380Z,9.38
2023-04-30T03:52:37.835Z,9.48
2023-04-30T03:55:07.749Z,8.95
2023-04-30T03:57:36.620Z,8.77
2023-04-30T04:00:08.913Z,8.30
2023-04-30T04:02:42.293Z,8.07
2023-04-30T04:05:12.871Z,8.15
2023-04-30T04:07:41.493Z,7.97
2023-04-30T04:10:10.511Z,8.38
2023-04-30T04:12:39.459Z,8.82
2023-04-30T04:15:11.178Z,8.60
2023-04-30T04:17:40.037Z,9.18
2023-04-30T04:20:11.901Z,10.40
2023-04-30T04:22:42.734Z,8.98
2023-04-30T04:25:12.147Z,10.75
2023-04-30T04:27:42.405Z,10.38
2023-04-30T04:30:14.140Z,10.23
2023-04-30T04:32:46.834Z,9.95
2023-04-30T04:35:16.079Z,11.00
2023-04-30T04:37:45.336Z,10.05
2023-04-30T04:40:14.293Z,10.82
2023-04-30T04:42:43.350Z,11.05
2023-04-30T04:45:16.403Z,10.20
2023-04-30T04:47:45.086Z,10.68
2023-04-30T04:50:15.040Z,9.88
2023-04-30T04:52:43.744Z,9.23
2023-04-30T04:55:13.502Z,9.60
2023-04-30T04:57:42.762Z,8.48
2023-04-30T05:00:12.976Z,9.15
2023-04-30T05:02:43.036Z,9.68
2023-04-30T05:05:12.337Z,9.10
2023-04-30T05:07:41.509Z,9.45
2023-04-30T05:10:11.629Z,9.48
2023-04-30T05:12:40.298Z,8.98
2023-04-30T05:15:09.798Z,8.23
2023-04-30T05:17:38.416Z,8.18
2023-04-30T05:20:09.993Z,7.15
2023-04-30T05:22:38.490Z,7.55
2023-04-30T05:25:07.939Z,8.35
2023-04-30T05:27:37.499Z,6.93
2023-04-30T05:30:06.843Z,6.60
2023-04-30T05:32:35.645Z,7.05
2023-04-30T05:35:04.752Z,6.68
2023-04-30T05:37:35.303Z,6.68
2023-04-30T05:40:04.180Z,7.18
2023-04-30T05:42:32.977Z,7.05
2023-04-30T05:45:02.226Z,7.03
2023-04-30T05:47:31.335Z,6.20
2023-04-30T05:49:59.966Z,6.78
2023-04-30T05:52:28.519Z,7.03
2023-04-30T05:54:58.503Z,7.25
2023-04-30T05:57:27.239Z,7.00
2023-04-30T05:59:56.118Z,7.78
2023-04-30T06:02:25.046Z,6.95
2023-04-30T06:04:53.950Z,6.53
2023-04-30T06:07:23.252Z,7.70
2023-04-30T06:09:52.115Z,6.70
2023-04-30T06:12:22.137Z,6.93
2023-04-30T06:14:51.432Z,6.43
2023-04-30T06:17:20.069Z,6.32
2023-04-30T06:19:48.427Z,5.88
2023-04-30T06:22:16.944Z,6.57
2023-04-30T06:24:45.880Z,5.93
2023-04-30T06:27:14.592Z,6.90
2023-04-30T06:29:46.449Z,6.78
2023-04-30T06:32:15.044Z,6.35
2023-04-30T06:34:43.912Z,6.35
2023-04-30T06:37:12.592Z,6.63
2023-04-30T06:39:40.908Z,6.05
2023-04-30T06:42:09.421Z,6.13
2023-04-30T06:44:37.975Z,5.65
2023-04-30T06:47:07.930Z,6.25
2023-04-30T06:49:36.640Z,5.95
2023-04-30T06:52:05.457Z,5.60
2023-04-30T06:54:34.101Z,6.07
2023-04-30T06:57:03.813Z,5.97
2023-04-30T06:59:32.876Z,6.13
2023-04-30T07:02:01.537Z,5.28
2023-04-30T07:04:31.561Z,5.70
2023-04-30T07:07:02.308Z,5.35
2023-04-30T07:09:31.044Z,5.43
2023-04-30T07:11:59.857Z,5.18
2023-04-30T07:14:28.590Z,5.38
2023-04-30T07:16:57.150Z,5.80
2023-04-30T07:19:27.152Z,5.53
2023-04-30T07:21:57.264Z,5.05
2023-04-30T07:24:25.930Z,7.15
2023-04-30T07:26:54.343Z,5.45
2023-04-30T07:29:23.156Z,5.38
2023-04-30T07:31:51.875Z,5.28
2023-04-30T07:34:20.357Z,5.97
2023-04-30T07:36:49.672Z,5.22
2023-04-30T07:39:19.934Z,5.82
2023-04-30T07:41:48.844Z,5.90
2023-04-30T07:44:18.163Z,6.00
2023-04-30T07:46:46.812Z,6.55
2023-04-30T07:49:15.928Z,7.03
2023-04-30T07:51:44.561Z,7.63
2023-04-30T07:54:12.998Z,7.63
2023-04-30T07:56:42.943Z,7.25
2023-04-30T07:59:11.498Z,7.97
2023-04-30T08:01:40.167Z,9.52
2023-04-30T08:04:09.776Z,9.55
2023-04-30T08:06:38.346Z,8.48
2023-04-30T08:09:06.990Z,10.30
2023-04-30T08:11:35.595Z,9.50
2023-04-30T08:14:07.110Z,10.35
2023-04-30T08:16:37.252Z,9.30
2023-04-30T08:19:05.984Z,8.95
2023-04-30T08:21:34.851Z,8.90
2023-04-30T08:24:03.701Z,8.98
2023-04-30T08:26:32.191Z,8.90
2023-04-30T08:29:00.897Z,8.98
2023-04-30T08:31:35.425Z,8.13
2023-04-30T08:34:04.824Z,6.70
2023-04-30T08:36:33.278Z,6.45
2023-04-30T08:39:02.935Z,6.43
2023-04-30T08:41:35.182Z,6.47
2023-04-30T08:44:08.180Z,6.20
2023-04-30T08:46:40.170Z,4.95
2023-04-30T08:49:08.858Z,5.13
2023-04-30T08:51:38.206Z,4.60
2023-04-30T08:54:06.825Z,5.40
2023-04-30T08:56:35.479Z,5.15
2023-04-30T08:59:03.944Z,4.85
2023-04-30T09:01:32.627Z,5.18
2023-04-30T09:04:04.957Z,4.07
2023-04-30T09:06:34.009Z,3.63
2023-04-30T09:09:11.754Z,4.03
2023-04-30T09:11:40.871Z,3.75
2023-04-30T09:14:09.905Z,3.53
2023-04-30T09:16:49.082Z,3.45
2023-04-30T09:19:29.642Z,3.60
2023-04-30T09:21:58.541Z,4.20
2023-04-30T09:24:27.297Z,3.53
2023-04-30T09:26:55.831Z,2.80
2023-04-30T09:29:37.499Z,2.90
2023-04-30T09:32:10.469Z,2.65
2023-04-30T09:34:40.981Z,2.60
2023-04-30T09:37:09.571Z,2.40
2023-04-30T09:39:49.829Z,2.53
2023-04-30T09:42:19.268Z,2.45
2023-04-30T09:44:49.036Z,2.67
2023-04-30T09:47:20.049Z,2.65
2023-04-30T09:49:53.559Z,2.28
2023-04-30T09:52:22.793Z,2.40
2023-04-30T09:54:51.667Z,2.40
2023-04-30T09:57:24.789Z,2.38
2023-04-30T09:59:54.918Z,2.28
2023-04-30T10:02:24.961Z,2.30
2023-04-30T10:04:59.499Z,1.92
2023-04-30T10:07:35.634Z,2.20
2023-04-30T10:10:08.929Z,2.13
2023-04-30T10:12:45.286Z,1.67
2023-04-30T10:15:19.063Z,1.80
2023-04-30T10:17:52.107Z,1.90
2023-04-30T10:20:24.761Z,1.70
2023-04-30T10:22:57.552Z,1.73
2023-04-30T10:25:27.180Z,1.67
2023-04-30T10:27:56.094Z,2.00
2023-04-30T10:30:25.093Z,1.30
2023-04-30T10:33:08.211Z,1.23
2023-04-30T10:35:48.353Z,1.70
2023-04-30T10:38:23.320Z,1.48
2023-04-30T10:40:52.164Z,1.70
2023-04-30T10:43:22.325Z,1.80
2023-04-30T10:45:51.631Z,1.45
2023-04-30T10:48:26.052Z,1.80
2023-04-30T10:50:58.016Z,1.40
2023-04-30T10:53:29.124Z,1.30
2023-04-30T10:56:00.771Z,1.27
2023-04-30T10:58:34.316Z,1.35
2023-04-30T11:01:08.752Z,1.30
2023-04-30T11:03:38.568Z,1.50
2023-04-30T11:06:13.597Z,1.30
2023-04-30T11:08:46.666Z,1.17
2023-04-30T11:11:21.463Z,1.73
2023-04-30T11:14:02.886Z,1.50
2023-04-30T11:16:32.070Z,1.15
2023-04-30T11:19:09.482Z,1.33
2023-04-30T11:21:43.213Z,1.25
2023-04-30T11:24:11.939Z,1.60
2023-04-30T11:27:07.189Z,1.38
2023-04-30T11:29:36.630Z,1.48
2023-04-30T11:32:09.256Z,1.30
2023-04-30T11:34:39.367Z,1.20
2023-04-30T11:37:13.477Z,1.00
2023-04-30T11:39:43.913Z,1.27
2023-04-30T11:42:18.133Z,1.45
2023-04-30T11:44:47.231Z,1.23
2023-04-30T11:47:17.447Z,1.63
2023-04-30T11:49:45.967Z,1.25
2023-04-30T11:52:16.282Z,1.40
2023-04-30T11:54:46.117Z,1.17
2023-04-30T11:57:15.190Z,1.38
2023-04-30T11:59:44.029Z,1.38
2023-04-30T12:02:16.780Z,1.00
2023-04-30T12:04:47.302Z,1.02
2023-04-30T12:07:17.497Z,1.20
2023-04-30T12:09:56.683Z,1.20
2023-04-30T12:12:29.874Z,1.00
2023-04-30T12:14:59.507Z,1.23
2023-04-30T12:17:35.193Z,1.55
2023-04-30T12:20:05.312Z,1.33
2023-04-30T12:22:35.598Z,1.13
2023-04-30T12:25:08.312Z,1.35
2023-04-30T12:27:37.313Z,1.67
2023-04-30T12:30:09.841Z,1.40
2023-04-30T12:32:44.794Z,1.65
2023-04-30T12:35:16.846Z,1.13
2023-04-30T12:40:16.314Z,1.15
2023-04-30T12:42:47.111Z,1.05
2023-04-30T12:45:51.379Z,1.30
2023-04-30T12:48:22.282Z,1.00
2023-04-30T12:50:55.367Z,1.33
2023-04-30T12:53:26.005Z,1.58
2023-04-30T12:56:15.679Z,1.00
2023-04-30T12:58:47.694Z,0.95
2023-04-30T13:01:19.702Z,0.90
2023-04-30T13:03:48.660Z,1.17
2023-04-30T13:06:18.161Z,1.48
2023-04-30T13:08:58.067Z,1.10
2023-04-30T13:11:27.980Z,0.90
2023-04-30T13:13:57.012Z,1.08
2023-04-30T13:16:26.219Z,0.90
2023-04-30T13:18:55.437Z,1.55
2023-04-30T13:21:25.035Z,1.20
2023-04-30T13:23:58.366Z,1.10
2023-04-30T13:26:28.644Z,1.13
2023-04-30T13:28:57.385Z,1.27
2023-04-30T13:31:26.065Z,1.25
2023-04-30T13:33:55.070Z,1.23
2023-04-30T13:36:24.242Z,1.00
2023-04-30T13:38:54.587Z,1.30
2023-04-30T13:41:23.763Z,1.33
2023-04-30T13:43:52.963Z,1.42
2023-04-30T13:46:22.162Z,1.70
2023-04-30T13:48:53.353Z,1.00
2023-04-30T13:51:21.994Z,1.20
2023-04-30T13:53:50.453Z,1.05
2023-04-30T13:56:21.276Z,1.25
2023-04-30T13:58:49.839Z,1.20
2023-04-30T14:01:18.915Z,1.00
2023-04-30T14:03:49.133Z,1.20
2023-04-30T14:06:18.116Z,1.17
2023-04-30T14:08:46.785Z,1.42
2023-04-30T14:11:15.505Z,1.40
2023-04-30T14:13:45.790Z,1.00
2023-04-30T14:16:14.214Z,1.33
2023-04-30T14:18:44.056Z,1.17
2023-04-30T14:21:12.931Z,1.30
2023-04-30T14:23:41.893Z,1.13
2023-04-30T14:26:10.874Z,1.30
2023-04-30T14:28:39.326Z,0.88
2023-04-30T14:31:09.531Z,1.00
2023-04-30T14:33:38.158Z,1.05
2023-04-30T14:36:08.297Z,1.23
2023-04-30T14:38:37.116Z,1.10
2023-04-30T14:41:07.383Z,0.85
2023-04-30T14:43:36.056Z,1.08
2023-04-30T14:46:04.899Z,0.70
2023-04-30T14:48:35.031Z,0.88
2023-04-30T14:51:03.421Z,1.10
2023-04-30T14:53:32.113Z,1.02
2023-04-30T14:56:00.676Z,1.30
2023-04-30T14:58:29.265Z,0.88
2023-04-30T15:00:58.227Z,1.08
2023-04-30T15:03:26.911Z,1.02
2023-04-30T15:05:57.259Z,1.25
2023-04-30T15:08:25.820Z,0.90
2023-04-30T15:10:55.196Z,1.00
2023-04-30T15:13:23.667Z,1.17
2023-04-30T15:15:52.910Z,1.10
2023-04-30T15:18:21.953Z,1.17
2023-04-30T15:20:50.441Z,1.35
2023-04-30T15:23:21.028Z,0.95
2023-04-30T15:25:50.384Z,0.95
2023-04-30T15:28:18.887Z,1.35
2023-04-30T15:30:47.537Z,0.90
2023-04-30T15:33:16.191Z,1.10
2023-04-30T15:35:44.718Z,0.95
2023-04-30T15:38:13.639Z,0.90
2023-04-30T15:40:44.063Z,1.48
2023-04-30T15:43:12.951Z,0.85
2023-04-30T15:45:47.814Z,0.70
2023-04-30T15:48:16.905Z,1.20
2023-04-30T15:50:45.406Z,1.10
2023-04-30T15:53:13.916Z,1.15
2023-04-30T15:55:44.240Z,1.40
2023-04-30T15:58:13.237Z,0.90
2023-04-30T16:00:41.809Z,0.93
2023-04-30T16:03:10.569Z,0.90
2023-04-30T16:05:40.805Z,1.15
2023-04-30T16:08:10.572Z,0.95
2023-04-30T16:10:39.390Z,0.85
2023-04-30T16:13:09.815Z,0.73
2023-04-30T16:15:38.362Z,0.80
2023-04-30T16:18:08.041Z,1.35
2023-04-30T16:20:37.680Z,1.33
2023-04-30T16:23:06.933Z,1.10
2023-04-30T16:25:35.690Z,0.90
2023-04-30T16:28:04.311Z,1.00
2023-04-30T16:30:34.596Z,0.88
2023-04-30T16:33:03.540Z,1.00
2023-04-30T16:35:32.254Z,1.10
2023-04-30T16:38:02.752Z,0.80
2023-04-30T16:40:32.011Z,1.27
2023-04-30T16:43:00.920Z,0.70
2023-04-30T16:45:30.375Z,1.13
2023-04-30T16:48:00.653Z,0.90
2023-04-30T16:50:29.165Z,1.00
2023-04-30T16:53:00.568Z,1.40
2023-04-30T16:55:29.229Z,1.00
2023-04-30T16:57:57.953Z,0.85
2023-04-30T17:00:26.742Z,0.90
2023-04-30T17:02:55.987Z,0.90
2023-04-30T17:05:26.423Z,1.20
2023-04-30T17:07:55.380Z,0.88
2023-04-30T17:10:24.270Z,0.70
2023-04-30T17:12:52.917Z,1.10
2023-04-30T17:15:21.513Z,0.93
2023-04-30T17:17:50.137Z,1.10
2023-04-30T17:20:18.888Z,1.02
2023-04-30T17:22:49.724Z,0.98
2023-04-30T17:25:18.284Z,1.08
2023-04-30T17:27:47.548Z,0.90
2023-04-30T17:30:16.901Z,0.93
2023-04-30T17:32:45.351Z,1.48
2023-04-30T17:35:13.948Z,1.08
2023-04-30T17:37:42.646Z,1.00
2023-04-30T17:40:13.167Z,1.10
2023-04-30T17:42:41.851Z,1.20
2023-04-30T17:45:11.078Z,1.45
2023-04-30T17:47:40.664Z,1.52
2023-04-30T17:50:10.546Z,1.80
2023-04-30T17:52:39.513Z,2.00
2023-04-30T17:55:09.179Z,1.80
2023-04-30T17:57:39.266Z,2.17
2023-04-30T18:00:09.391Z,1.70
2023-04-30T18:02:44.892Z,2.20
2023-04-30T18:05:13.765Z,1.70
2023-04-30T18:07:42.525Z,1.95
2023-04-30T18:10:11.289Z,2.10
2023-04-30T18:12:41.704Z,1.65
2023-04-30T18:15:13.125Z,1.80
2023-04-30T18:17:42.454Z,1.63
2023-04-30T18:20:12.925Z,1.52
2023-04-30T18:22:43.726Z,1.77
2023-04-30T18:25:13.235Z,1.55
2023-04-30T18:27:43.381Z,1.58
2023-04-30T18:30:12.904Z,1.98
2023-04-30T18:32:42.043Z,1.65
2023-04-30T18:35:11.642Z,1.90
2023-04-30T18:37:40.283Z,1.75
2023-04-30T18:40:09.882Z,1.70
2023-04-30T18:42:38.894Z,1.85
2023-04-30T18:45:11.626Z,1.85
2023-04-30T18:47:39.990Z,1.75
2023-04-30T18:50:13.699Z,1.95
2023-04-30T18:52:42.841Z,1.73
2023-04-30T18:55:13.938Z,1.75
2023-04-30T18:57:43.799Z,1.60
2023-04-30T19:00:15.012Z,1.98
2023-04-30T19:02:44.304Z,1.70
2023-04-30T19:05:14.384Z,1.98
2023-04-30T19:07:44.919Z,2.17
2023-04-30T19:10:13.830Z,2.17
2023-04-30T19:12:44.071Z,1.80
2023-04-30T19:15:15.072Z,1.95
2023-04-30T19:17:43.764Z,2.10
2023-04-30T19:20:13.492Z,1.90
2023-04-30T19:22:42.138Z,2.15
2023-04-30T19:25:11.850Z,2.08
2023-04-30T19:27:40.665Z,2.40
2023-04-30T19:30:10.059Z,2.60
2023-04-30T19:32:40.388Z,2.35
2023-04-30T19:35:10.332Z,2.50
2023-04-30T19:37:38.867Z,2.08
2023-04-30T19:40:10.652Z,2.17
2023-04-30T19:42:39.110Z,2.33
2023-04-30T19:45:09.780Z,2.40
2023-04-30T19:47:39.900Z,2.45
2023-04-30T19:50:10.262Z,2.90
2023-04-30T19:52:38.665Z,2.15
2023-04-30T19:55:07.406Z,2.00
2023-04-30T19:57:36.626Z,3.00
2023-04-30T20:00:06.606Z,2.28
2023-04-30T20:02:39.270Z,2.38
2023-04-30T20:05:10.382Z,2.25
2023-04-30T20:07:38.744Z,2.47
2023-04-30T20:10:09.809Z,2.30
2023-04-30T20:12:38.577Z,2.25
2023-04-30T20:15:08.311Z,3.05
2023-04-30T20:17:36.882Z,2.05
2023-04-30T20:20:08.025Z,2.45
2023-04-30T20:22:36.648Z,3.08
2023-04-30T20:25:05.553Z,3.60
2023-04-30T20:27:34.569Z,2.80
2023-04-30T20:30:04.958Z,3.03
2023-04-30T20:32:34.813Z,2.65
2023-04-30T20:35:04.798Z,6.28
2023-04-30T20:37:35.171Z,13.70
2023-04-30T20:40:07.972Z,9.02
2023-04-30T20:42:36.380Z,10.85
2023-04-30T20:45:06.790Z,2.35
2023-04-30T20:47:35.876Z,2.22
2023-04-30T20:50:04.658Z,3.42
2023-04-30T20:52:35.023Z,2.20
2023-04-30T20:55:03.676Z,2.60
2023-04-30T20:57:32.502Z,2.22
2023-04-30T21:00:01.649Z,2.30
2023-04-30T21:02:30.795Z,2.20
2023-04-30T21:05:04.466Z,2.22
2023-04-30T21:07:35.602Z,2.20
2023-04-30T21:10:05.345Z,2.60
2023-04-30T21:12:34.485Z,2.30
2023-04-30T21:15:04.818Z,2.13
2023-04-30T21:17:33.313Z,2.10
2023-04-30T21:20:01.881Z,2.53
2023-04-30T21:22:32.034Z,2.15
2023-04-30T21:25:02.227Z,2.60
2023-04-30T21:27:30.798Z,2.30
2023-04-30T21:29:59.305Z,2.60
2023-04-30T21:32:27.899Z,2.85
2023-04-30T21:34:56.420Z,2.40
2023-04-30T21:37:25.241Z,2.45
2023-04-30T21:39:55.989Z,2.35
2023-04-30T21:42:27.756Z,2.58
2023-04-30T21:44:56.675Z,2.42
2023-04-30T21:47:25.438Z,2.50
2023-04-30T21:49:54.270Z,2.60
2023-04-30T21:52:22.980Z,2.67
2023-04-30T21:54:51.879Z,2.58
2023-04-30T21:57:20.685Z,2.70
2023-04-30T21:59:50.540Z,2.72
2023-04-30T22:02:24.337Z,3.42
2023-04-30T22:04:53.571Z,3.70
2023-04-30T22:07:22.461Z,3.80
2023-04-30T22:09:51.835Z,7.55
2023-04-30T22:12:22.953Z,13.80
2023-04-30T22:14:55.467Z,5.85
2023-04-30T22:17:24.952Z,5.80
2023-04-30T22:19:54.639Z,6.45
2023-04-30T22:22:23.425Z,7.05
2023-04-30T22:24:51.828Z,6.20
2023-04-30T22:27:20.363Z,6.57
2023-04-30T22:29:50.723Z,7.45
2023-04-30T22:32:20.836Z,9.75
2023-04-30T22:34:50.870Z,11.23
2023-04-30T22:37:19.419Z,9.98
2023-04-30T22:39:48.627Z,8.35
2023-04-30T22:42:17.188Z,7.30
2023-04-30T22:44:46.883Z,7.35
2023-04-30T22:47:15.525Z,6.80
2023-04-30T22:49:46.081Z,6.30
2023-04-30T22:52:15.265Z,6.63
2023-04-30T22:54:43.809Z,6.53
2023-04-30T22:57:12.297Z,8.35
2023-04-30T22:59:41.359Z,7.60
2023-04-30T23:02:10.024Z,6.32
2023-04-30T23:04:38.952Z,5.72
2023-04-30T23:07:09.202Z,5.18
2023-04-30T23:09:37.787Z,5.78
2023-04-30T23:12:07.406Z,5.70
2023-04-30T23:14:36.317Z,6.05
2023-04-30T23:17:05.134Z,5.93
2023-04-30T23:19:34.400Z,6.40
2023-04-30T23:22:04.762Z,6.85
2023-04-30T23:24:36.077Z,6.35
2023-04-30T23:27:05.058Z,6.20
2023-04-30T23:29:36.330Z,5.53
2023-04-30T23:32:05.917Z,5.88
2023-04-30T23:34:41.327Z,7.53
2023-04-30T23:37:10.803Z,19.48
2023-04-30T23:39:41.622Z,18.40
2023-04-30T23:42:10.189Z,14.38
2023-04-30T23:44:38.629Z,14.18
2023-04-30T23:47:08.435Z,14.30
2023-04-30T23:49:37.034Z,10.82
2023-04-30T23:52:06.477Z,9.50
2023-04-30T23:54:35.138Z,7.93
2023-04-30T23:57:06.287Z,11.30
2023-04-30T23:59:34.857Z,7.95
